sensor_id;sensor_type;location;lat;lon;timestamp;pressure;altitude;pressure_sealevel;temperature;humidity
15193;BME280;7697;51.630;7.484;2023-03-25T00:03:16;99536.25;;;11.06;91.09
15193;BME280;7697;51.630;7.484;2023-03-25T00:08:18;99534.88;;;11.03;91.09
15193;BME280;7697;51.630;7.484;2023-03-25T00:13:20;99539.13;;;11.04;91.17
15193;BME280;7697;51.630;7.484;2023-03-25T00:18:26;99548.91;;;11.04;91.04
15193;BME280;7697;51.630;7.484;2023-03-25T00:23:32;99541.34;;;11.07;90.74
15193;BME280;7697;51.630;7.484;2023-03-25T00:28:35;99528.44;;;10.99;90.36
15193;BME280;7697;51.630;7.484;2023-03-25T00:33:39;99529.69;;;10.97;90.50
15193;BME280;7697;51.630;7.484;2023-03-25T00:38:47;99548.88;;;10.92;90.79
15193;BME280;7697;51.630;7.484;2023-03-25T00:43:52;99556.97;;;10.97;90.37
15193;BME280;7697;51.630;7.484;2023-03-25T00:48:56;99540.81;;;10.87;90.53
15193;BME280;7697;51.630;7.484;2023-03-25T00:53:58;99557.66;;;10.93;90.50
15193;BME280;7697;51.630;7.484;2023-03-25T00:59:00;99551.41;;;10.87;90.86
15193;BME280;7697;51.630;7.484;2023-03-25T01:04:04;99540.38;;;10.90;90.74
15193;BME280;7697;51.630;7.484;2023-03-25T01:09:13;99553.03;;;10.88;90.52
15193;BME280;7697;51.630;7.484;2023-03-25T01:14:17;99540.59;;;10.88;90.19
15193;BME280;7697;51.630;7.484;2023-03-25T01:19:20;99547.75;;;10.88;89.80
15193;BME280;7697;51.630;7.484;2023-03-25T01:24:23;99551.19;;;10.88;89.96
15193;BME280;7697;51.630;7.484;2023-03-25T01:29:26;99525.97;;;10.86;89.90
15193;BME280;7697;51.630;7.484;2023-03-25T01:34:30;99544.88;;;10.89;89.90
15193;BME280;7697;51.630;7.484;2023-03-25T01:39:32;99521.00;;;10.78;90.07
15193;BME280;7697;51.630;7.484;2023-03-25T01:50:14;99527.09;;;10.78;91.13
15193;BME280;7697;51.630;7.484;2023-03-25T01:55:17;99507.63;;;10.73;91.57
15193;BME280;7697;51.630;7.484;2023-03-25T02:00:20;99509.69;;;10.71;91.79
15193;BME280;7697;51.630;7.484;2023-03-25T02:05:30;99514.19;;;10.70;91.42
15193;BME280;7697;51.630;7.484;2023-03-25T02:10:33;99520.28;;;10.71;91.11
15193;BME280;7697;51.630;7.484;2023-03-25T02:15:48;99509.22;;;10.74;90.93
15193;BME280;7697;51.630;7.484;2023-03-25T02:21:08;99509.34;;;10.67;91.12
15193;BME280;7697;51.630;7.484;2023-03-25T02:32:10;99509.81;;;10.64;91.05
15193;BME280;7697;51.630;7.484;2023-03-25T02:43:02;99506.31;;;10.52;92.33
15193;BME280;7697;51.630;7.484;2023-03-25T02:48:10;99513.31;;;10.46;92.26
15193;BME280;7697;51.630;7.484;2023-03-25T02:53:20;99512.94;;;10.43;92.15
15193;BME280;7697;51.630;7.484;2023-03-25T02:58:27;99496.56;;;10.34;91.02
15193;BME280;7697;51.630;7.484;2023-03-25T03:03:31;99495.88;;;10.39;91.25
15193;BME280;7697;51.630;7.484;2023-03-25T03:08:44;99497.06;;;10.43;90.29
15193;BME280;7697;51.630;7.484;2023-03-25T03:14:13;99505.94;;;10.48;89.92
15193;BME280;7697;51.630;7.484;2023-03-25T03:19:28;99492.56;;;10.43;89.81
15193;BME280;7697;51.630;7.484;2023-03-25T03:24:39;99498.22;;;10.47;89.26
15193;BME280;7697;51.630;7.484;2023-03-25T03:29:47;99495.66;;;10.40;88.98
15193;BME280;7697;51.630;7.484;2023-03-25T03:34:51;99505.59;;;10.45;89.27
15193;BME280;7697;51.630;7.484;2023-03-25T03:39:56;99493.03;;;10.40;89.75
15193;BME280;7697;51.630;7.484;2023-03-25T03:45:03;99501.66;;;10.47;88.68
15193;BME280;7697;51.630;7.484;2023-03-25T03:50:09;99503.75;;;10.45;88.91
15193;BME280;7697;51.630;7.484;2023-03-25T03:55:14;99506.41;;;10.45;89.17
15193;BME280;7697;51.630;7.484;2023-03-25T04:00:23;99513.06;;;10.48;88.97
15193;BME280;7697;51.630;7.484;2023-03-25T04:05:28;99520.66;;;10.44;89.22
15193;BME280;7697;51.630;7.484;2023-03-25T04:10:35;99511.38;;;10.24;90.53
15193;BME280;7697;51.630;7.484;2023-03-25T04:15:40;99508.78;;;10.17;91.46
15193;BME280;7697;51.630;7.484;2023-03-25T04:20:42;99512.06;;;10.12;91.80
15193;BME280;7697;51.630;7.484;2023-03-25T04:25:48;99504.00;;;10.07;91.71
15193;BME280;7697;51.630;7.484;2023-03-25T04:30:54;99501.16;;;10.09;92.17
15193;BME280;7697;51.630;7.484;2023-03-25T04:35:57;99497.31;;;10.05;92.47
15193;BME280;7697;51.630;7.484;2023-03-25T04:41:01;99513.66;;;10.02;93.61
15193;BME280;7697;51.630;7.484;2023-03-25T04:46:09;99493.22;;;9.91;94.78
15193;BME280;7697;51.630;7.484;2023-03-25T04:51:13;99505.56;;;9.97;95.01
15193;BME280;7697;51.630;7.484;2023-03-25T04:56:16;99490.00;;;9.89;94.68
15193;BME280;7697;51.630;7.484;2023-03-25T05:01:22;99495.72;;;9.86;94.95
15193;BME280;7697;51.630;7.484;2023-03-25T05:06:30;99486.41;;;9.83;94.37
15193;BME280;7697;51.630;7.484;2023-03-25T05:11:34;99484.56;;;9.84;94.36
15193;BME280;7697;51.630;7.484;2023-03-25T05:16:38;99481.34;;;9.82;95.42
15193;BME280;7697;51.630;7.484;2023-03-25T05:21:41;99469.44;;;9.72;95.26
15193;BME280;7697;51.630;7.484;2023-03-25T05:26:43;99468.84;;;9.70;95.39
15193;BME280;7697;51.630;7.484;2023-03-25T05:31:46;99504.66;;;9.85;95.03
15193;BME280;7697;51.630;7.484;2023-03-25T05:36:48;99499.84;;;9.82;93.96
15193;BME280;7697;51.630;7.484;2023-03-25T05:41:50;99493.53;;;9.83;94.34
15193;BME280;7697;51.630;7.484;2023-03-25T05:46:56;99516.88;;;9.86;94.90
15193;BME280;7697;51.630;7.484;2023-03-25T05:52:00;99498.66;;;9.77;95.09
15193;BME280;7697;51.630;7.484;2023-03-25T05:57:02;99526.41;;;9.87;94.60
15193;BME280;7697;51.630;7.484;2023-03-25T06:02:06;99523.94;;;9.92;94.92
15193;BME280;7697;51.630;7.484;2023-03-25T06:07:08;99514.00;;;9.87;94.06
15193;BME280;7697;51.630;7.484;2023-03-25T06:12:14;99521.50;;;9.90;94.69
15193;BME280;7697;51.630;7.484;2023-03-25T06:17:19;99501.59;;;9.88;94.32
15193;BME280;7697;51.630;7.484;2023-03-25T06:22:21;99506.16;;;9.99;94.26
15193;BME280;7697;51.630;7.484;2023-03-25T06:27:23;99509.38;;;10.01;93.78
15193;BME280;7697;51.630;7.484;2023-03-25T06:32:28;99507.78;;;10.00;93.94
15193;BME280;7697;51.630;7.484;2023-03-25T06:37:31;99527.13;;;10.12;93.40
15193;BME280;7697;51.630;7.484;2023-03-25T06:42:33;99520.59;;;10.14;92.88
15193;BME280;7697;51.630;7.484;2023-03-25T06:47:36;99499.09;;;10.11;92.56
15193;BME280;7697;51.630;7.484;2023-03-25T06:52:38;99511.78;;;10.21;92.45
15193;BME280;7697;51.630;7.484;2023-03-25T06:57:40;99523.94;;;10.28;92.40
15193;BME280;7697;51.630;7.484;2023-03-25T07:02:44;99511.91;;;10.44;92.17
15193;BME280;7697;51.630;7.484;2023-03-25T07:07:45;99513.22;;;10.53;92.17
15193;BME280;7697;51.630;7.484;2023-03-25T07:12:47;99505.06;;;10.55;91.96
15193;BME280;7697;51.630;7.484;2023-03-25T07:17:50;99500.91;;;10.59;91.33
15193;BME280;7697;51.630;7.484;2023-03-25T07:22:52;99506.63;;;10.85;91.05
15193;BME280;7697;51.630;7.484;2023-03-25T07:27:55;99525.69;;;11.17;90.33
15193;BME280;7697;51.630;7.484;2023-03-25T07:32:58;99516.69;;;11.07;89.80
15193;BME280;7697;51.630;7.484;2023-03-25T07:38:00;99529.13;;;11.06;88.68
15193;BME280;7697;51.630;7.484;2023-03-25T07:43:03;99527.06;;;11.08;88.48
15193;BME280;7697;51.630;7.484;2023-03-25T07:48:06;99519.66;;;11.10;89.09
15193;BME280;7697;51.630;7.484;2023-03-25T07:53:13;99557.84;;;11.33;88.19
15193;BME280;7697;51.630;7.484;2023-03-25T07:58:15;99567.41;;;11.34;88.41
15193;BME280;7697;51.630;7.484;2023-03-25T08:03:19;99563.00;;;11.27;88.76
15193;BME280;7697;51.630;7.484;2023-03-25T08:08:21;99559.00;;;11.25;88.54
15193;BME280;7697;51.630;7.484;2023-03-25T08:13:23;99568.75;;;11.13;89.06
15193;BME280;7697;51.630;7.484;2023-03-25T08:18:26;99554.56;;;10.96;89.87
15193;BME280;7697;51.630;7.484;2023-03-25T08:23:28;99565.72;;;10.98;88.50
15193;BME280;7697;51.630;7.484;2023-03-25T08:28:30;99566.88;;;10.90;88.63
15193;BME280;7697;51.630;7.484;2023-03-25T08:33:34;99565.03;;;11.02;88.54
15193;BME280;7697;51.630;7.484;2023-03-25T08:38:40;99576.19;;;11.34;88.07
15193;BME280;7697;51.630;7.484;2023-03-25T08:43:42;99573.06;;;11.60;86.57
15193;BME280;7697;51.630;7.484;2023-03-25T08:48:45;99570.66;;;11.59;86.61
15193;BME280;7697;51.630;7.484;2023-03-25T08:53:47;99536.06;;;11.54;85.96
15193;BME280;7697;51.630;7.484;2023-03-25T08:58:49;99567.66;;;11.55;85.71
15193;BME280;7697;51.630;7.484;2023-03-25T09:03:52;99566.03;;;11.43;85.02
15193;BME280;7697;51.630;7.484;2023-03-25T09:08:56;99555.44;;;11.43;85.30
15193;BME280;7697;51.630;7.484;2023-03-25T09:13:58;99558.22;;;11.71;83.90
15193;BME280;7697;51.630;7.484;2023-03-25T09:19:03;99577.44;;;12.01;83.20
15193;BME280;7697;51.630;7.484;2023-03-25T09:24:07;99572.50;;;11.82;83.48
15193;BME280;7697;51.630;7.484;2023-03-25T09:29:09;99578.25;;;11.67;83.89
15193;BME280;7697;51.630;7.484;2023-03-25T09:34:13;99587.28;;;11.78;84.53
15193;BME280;7697;51.630;7.484;2023-03-25T09:39:15;99576.88;;;11.64;86.05
15193;BME280;7697;51.630;7.484;2023-03-25T09:44:20;99580.09;;;11.66;87.25
15193;BME280;7697;51.630;7.484;2023-03-25T09:49:32;99576.91;;;11.76;86.85
15193;BME280;7697;51.630;7.484;2023-03-25T09:54:40;99586.44;;;12.12;85.29
15193;BME280;7697;51.630;7.484;2023-03-25T09:59:48;99594.03;;;12.32;83.70
15193;BME280;7697;51.630;7.484;2023-03-25T10:05:09;99600.50;;;12.24;83.81
15193;BME280;7697;51.630;7.484;2023-03-25T10:10:24;99606.66;;;12.01;87.11
15193;BME280;7697;51.630;7.484;2023-03-25T10:15:33;99601.69;;;11.82;89.00
15193;BME280;7697;51.630;7.484;2023-03-25T10:20:46;99612.97;;;11.65;90.44
15193;BME280;7697;51.630;7.484;2023-03-25T10:25:53;99604.66;;;11.50;92.04
15193;BME280;7697;51.630;7.484;2023-03-25T10:30:56;99595.19;;;11.31;93.04
15193;BME280;7697;51.630;7.484;2023-03-25T10:36:02;99599.78;;;11.24;94.30
15193;BME280;7697;51.630;7.484;2023-03-25T10:41:19;99609.31;;;11.13;94.83
15193;BME280;7697;51.630;7.484;2023-03-25T10:46:27;99607.69;;;11.12;95.69
15193;BME280;7697;51.630;7.484;2023-03-25T10:51:34;99599.63;;;11.07;96.40
15193;BME280;7697;51.630;7.484;2023-03-25T10:56:40;99600.44;;;11.84;98.38
15193;BME280;7697;51.630;7.484;2023-03-25T11:01:43;99616.13;;;12.61;97.06
15193;BME280;7697;51.630;7.484;2023-03-25T11:06:53;99609.75;;;12.90;95.26
15193;BME280;7697;51.630;7.484;2023-03-25T11:11:59;99613.97;;;13.03;94.90
15193;BME280;7697;51.630;7.484;2023-03-25T11:17:04;99623.56;;;12.75;94.20
15193;BME280;7697;51.630;7.484;2023-03-25T11:22:12;99632.81;;;12.33;94.77
15193;BME280;7697;51.630;7.484;2023-03-25T11:27:17;99599.75;;;11.89;95.50
15193;BME280;7697;51.630;7.484;2023-03-25T11:32:22;99621.56;;;11.79;96.47
15193;BME280;7697;51.630;7.484;2023-03-25T11:37:28;99612.84;;;11.72;97.78
15193;BME280;7697;51.630;7.484;2023-03-25T11:42:32;99596.16;;;11.83;98.13
15193;BME280;7697;51.630;7.484;2023-03-25T11:47:37;99594.78;;;11.81;98.19
15193;BME280;7697;51.630;7.484;2023-03-25T11:52:44;99589.41;;;12.27;98.07
15193;BME280;7697;51.630;7.484;2023-03-25T11:57:48;99586.75;;;12.96;98.63
15193;BME280;7697;51.630;7.484;2023-03-25T12:02:58;99580.91;;;13.27;94.35
15193;BME280;7697;51.630;7.484;2023-03-25T12:08:10;99575.22;;;13.90;91.01
15193;BME280;7697;51.630;7.484;2023-03-25T12:13:21;99572.28;;;14.31;88.42
15193;BME280;7697;51.630;7.484;2023-03-25T12:18:40;99592.47;;;14.26;85.52
15193;BME280;7697;51.630;7.484;2023-03-25T12:23:59;99552.81;;;14.08;83.30
15193;BME280;7697;51.630;7.484;2023-03-25T12:29:15;99575.88;;;13.81;81.04
15193;BME280;7697;51.630;7.484;2023-03-25T12:34:28;99577.84;;;13.52;83.06
15193;BME280;7697;51.630;7.484;2023-03-25T12:39:48;99564.38;;;13.25;82.25
15193;BME280;7697;51.630;7.484;2023-03-25T12:45:05;99549.66;;;12.89;85.75
15193;BME280;7697;51.630;7.484;2023-03-25T12:50:22;99543.78;;;12.70;83.94
15193;BME280;7697;51.630;7.484;2023-03-25T12:55:48;99550.00;;;12.93;85.85
15193;BME280;7697;51.630;7.484;2023-03-25T13:01:05;99554.41;;;13.32;84.10
15193;BME280;7697;51.630;7.484;2023-03-25T13:06:18;99560.28;;;13.68;83.24
15193;BME280;7697;51.630;7.484;2023-03-25T13:11:29;99524.53;;;14.02;78.80
15193;BME280;7697;51.630;7.484;2023-03-25T13:16:34;99538.25;;;14.16;78.88
15193;BME280;7697;51.630;7.484;2023-03-25T13:21:40;99552.38;;;14.38;78.88
15193;BME280;7697;51.630;7.484;2023-03-25T13:26:50;99540.19;;;14.20;77.16
15193;BME280;7697;51.630;7.484;2023-03-25T13:31:54;99532.25;;;13.82;78.35
15193;BME280;7697;51.630;7.484;2023-03-25T13:37:03;99539.59;;;13.75;78.05
15193;BME280;7697;51.630;7.484;2023-03-25T13:42:14;99533.78;;;13.78;78.46
15193;BME280;7697;51.630;7.484;2023-03-25T13:47:23;99520.31;;;13.84;78.65
15193;BME280;7697;51.630;7.484;2023-03-25T13:52:29;99532.38;;;13.92;77.82
15193;BME280;7697;51.630;7.484;2023-03-25T14:03:41;99559.84;;;13.76;76.29
15193;BME280;7697;51.630;7.484;2023-03-25T14:09:04;99557.81;;;14.05;74.43
15193;BME280;7697;51.630;7.484;2023-03-25T14:14:11;99560.91;;;13.97;74.86
15193;BME280;7697;51.630;7.484;2023-03-25T14:19:21;99540.94;;;13.94;75.74
15193;BME280;7697;51.630;7.484;2023-03-25T14:24:27;99562.84;;;14.01;77.54
15193;BME280;7697;51.630;7.484;2023-03-25T14:29:35;99562.31;;;14.21;75.36
15193;BME280;7697;51.630;7.484;2023-03-25T14:34:39;99582.53;;;14.00;75.38
15193;BME280;7697;51.630;7.484;2023-03-25T14:39:41;99583.38;;;14.06;76.89
15193;BME280;7697;51.630;7.484;2023-03-25T14:44:47;99578.63;;;14.08;75.70
15193;BME280;7697;51.630;7.484;2023-03-25T14:50:01;99603.03;;;14.00;77.13
15193;BME280;7697;51.630;7.484;2023-03-25T14:55:08;99606.16;;;14.13;76.86
15193;BME280;7697;51.630;7.484;2023-03-25T15:00:19;99613.66;;;14.00;75.24
15193;BME280;7697;51.630;7.484;2023-03-25T15:05:28;99615.13;;;13.90;76.52
15193;BME280;7697;51.630;7.484;2023-03-25T15:10:33;99595.94;;;13.88;75.73
15193;BME280;7697;51.630;7.484;2023-03-25T15:15:53;99602.28;;;13.66;76.49
15193;BME280;7697;51.630;7.484;2023-03-25T15:21:03;99594.59;;;13.69;77.34
15193;BME280;7697;51.630;7.484;2023-03-25T15:26:09;99600.44;;;13.49;77.56
15193;BME280;7697;51.630;7.484;2023-03-25T15:31:42;99612.19;;;13.20;78.92
15193;BME280;7697;51.630;7.484;2023-03-25T15:37:00;99593.66;;;12.97;81.28
15193;BME280;7697;51.630;7.484;2023-03-25T15:42:24;99579.31;;;12.98;83.06
15193;BME280;7697;51.630;7.484;2023-03-25T15:47:44;99569.75;;;12.97;81.93
15193;BME280;7697;51.630;7.484;2023-03-25T15:53:16;99574.25;;;12.96;81.32
15193;BME280;7697;51.630;7.484;2023-03-25T15:58:25;99579.81;;;12.95;81.49
15193;BME280;7697;51.630;7.484;2023-03-25T16:03:29;99578.44;;;12.92;81.78
15193;BME280;7697;51.630;7.484;2023-03-25T16:08:35;99596.69;;;12.89;81.38
15193;BME280;7697;51.630;7.484;2023-03-25T16:13:38;99578.97;;;12.77;81.46
15193;BME280;7697;51.630;7.484;2023-03-25T16:18:40;99601.69;;;12.85;81.02
15193;BME280;7697;51.630;7.484;2023-03-25T16:23:45;99600.13;;;12.72;81.36
15193;BME280;7697;51.630;7.484;2023-03-25T16:28:47;99597.47;;;12.72;81.98
15193;BME280;7697;51.630;7.484;2023-03-25T16:33:49;99608.91;;;12.73;81.32
15193;BME280;7697;51.630;7.484;2023-03-25T16:38:52;99634.38;;;12.57;81.73
15193;BME280;7697;51.630;7.484;2023-03-25T16:43:55;99642.13;;;12.47;82.98
15193;BME280;7697;51.630;7.484;2023-03-25T16:48:59;99652.31;;;12.27;85.69
15193;BME280;7697;51.630;7.484;2023-03-25T16:54:07;99634.22;;;12.00;88.16
15193;BME280;7697;51.630;7.484;2023-03-25T16:59:16;99632.25;;;11.84;90.06
15193;BME280;7697;51.630;7.484;2023-03-25T17:04:21;99660.34;;;11.74;90.97
15193;BME280;7697;51.630;7.484;2023-03-25T17:09:31;99667.75;;;11.72;91.84
15193;BME280;7697;51.630;7.484;2023-03-25T17:14:38;99665.19;;;11.65;92.43
15193;BME280;7697;51.630;7.484;2023-03-25T17:19:43;99660.00;;;11.58;92.67
15193;BME280;7697;51.630;7.484;2023-03-25T17:24:53;99658.38;;;11.57;93.27
15193;BME280;7697;51.630;7.484;2023-03-25T17:29:57;99652.81;;;11.47;93.07
15193;BME280;7697;51.630;7.484;2023-03-25T17:35:03;99673.72;;;11.55;93.60
15193;BME280;7697;51.630;7.484;2023-03-25T17:40:08;99677.16;;;11.56;94.06
15193;BME280;7697;51.630;7.484;2023-03-25T17:45:13;99682.94;;;11.53;93.68
15193;BME280;7697;51.630;7.484;2023-03-25T17:50:17;99686.97;;;11.55;94.03
15193;BME280;7697;51.630;7.484;2023-03-25T17:55:21;99685.69;;;11.46;94.39
15193;BME280;7697;51.630;7.484;2023-03-25T18:00:22;99697.31;;;11.45;94.54
15193;BME280;7697;51.630;7.484;2023-03-25T18:05:25;99706.66;;;11.48;94.69
15193;BME280;7697;51.630;7.484;2023-03-25T18:10:28;99752.22;;;11.56;94.38
15193;BME280;7697;51.630;7.484;2023-03-25T18:15:31;99737.22;;;11.20;94.49
15193;BME280;7697;51.630;7.484;2023-03-25T18:20:35;99739.56;;;10.99;94.42
15193;BME280;7697;51.630;7.484;2023-03-25T18:25:38;99735.72;;;10.76;94.93
15193;BME280;7697;51.630;7.484;2023-03-25T18:30:43;99741.53;;;10.67;95.28
15193;BME280;7697;51.630;7.484;2023-03-25T18:35:45;99744.47;;;10.59;95.29
15193;BME280;7697;51.630;7.484;2023-03-25T18:40:48;99766.41;;;10.66;95.04
15193;BME280;7697;51.630;7.484;2023-03-25T18:45:51;99785.97;;;10.65;95.97
15193;BME280;7697;51.630;7.484;2023-03-25T18:50:54;99771.56;;;10.61;96.70
15193;BME280;7697;51.630;7.484;2023-03-25T18:55:59;99778.59;;;10.67;97.93
15193;BME280;7697;51.630;7.484;2023-03-25T19:01:02;99804.81;;;10.75;98.36
15193;BME280;7697;51.630;7.484;2023-03-25T19:06:07;99808.63;;;10.61;96.28
15193;BME280;7697;51.630;7.484;2023-03-25T19:11:11;99838.66;;;10.48;95.63
15193;BME280;7697;51.630;7.484;2023-03-25T19:16:13;99833.28;;;10.36;92.70
15193;BME280;7697;51.630;7.484;2023-03-25T19:21:16;99812.78;;;9.94;95.01
15193;BME280;7697;51.630;7.484;2023-03-25T19:26:19;99831.25;;;9.69;97.02
15193;BME280;7697;51.630;7.484;2023-03-25T19:31:21;99842.06;;;9.61;98.78
15193;BME280;7697;51.630;7.484;2023-03-25T19:36:23;99852.47;;;9.49;99.61
15193;BME280;7697;51.630;7.484;2023-03-25T19:41:26;99852.72;;;9.48;100.00
15193;BME280;7697;51.630;7.484;2023-03-25T19:46:28;99831.13;;;9.51;100.00
15193;BME280;7697;51.630;7.484;2023-03-25T19:51:31;99803.88;;;9.50;100.00
15193;BME280;7697;51.630;7.484;2023-03-25T19:56:34;99821.13;;;9.59;100.00
15193;BME280;7697;51.630;7.484;2023-03-25T20:01:36;99848.16;;;9.61;100.00
15193;BME280;7697;51.630;7.484;2023-03-25T20:06:38;99844.56;;;9.49;100.00
15193;BME280;7697;51.630;7.484;2023-03-25T20:11:41;99845.94;;;9.58;100.00
15193;BME280;7697;51.630;7.484;2023-03-25T20:16:44;99846.97;;;9.57;100.00
15193;BME280;7697;51.630;7.484;2023-03-25T20:21:45;99850.03;;;9.54;100.00
15193;BME280;7697;51.630;7.484;2023-03-25T20:26:49;99853.09;;;9.51;100.00
15193;BME280;7697;51.630;7.484;2023-03-25T20:31:51;99855.50;;;9.59;100.00
15193;BME280;7697;51.630;7.484;2023-03-25T20:36:53;99846.97;;;9.57;100.00
15193;BME280;7697;51.630;7.484;2023-03-25T20:41:57;99850.22;;;9.59;100.00
15193;BME280;7697;51.630;7.484;2023-03-25T20:46:59;99848.59;;;9.58;100.00
15193;BME280;7697;51.630;7.484;2023-03-25T20:52:00;99856.25;;;9.66;100.00
15193;BME280;7697;51.630;7.484;2023-03-25T20:57:04;99847.31;;;9.67;100.00
15193;BME280;7697;51.630;7.484;2023-03-25T21:02:08;99852.59;;;9.67;100.00
15193;BME280;7697;51.630;7.484;2023-03-25T21:07:10;99853.25;;;9.63;100.00
15193;BME280;7697;51.630;7.484;2023-03-25T21:12:14;99853.47;;;9.61;100.00
15193;BME280;7697;51.630;7.484;2023-03-25T21:17:15;99855.31;;;9.54;100.00
15193;BME280;7697;51.630;7.484;2023-03-25T21:22:17;99857.56;;;9.57;100.00
15193;BME280;7697;51.630;7.484;2023-03-25T21:27:20;99852.47;;;9.56;100.00
15193;BME280;7697;51.630;7.484;2023-03-25T21:32:25;99874.19;;;9.64;100.00
15193;BME280;7697;51.630;7.484;2023-03-25T21:37:26;99863.25;;;9.54;100.00
15193;BME280;7697;51.630;7.484;2023-03-25T21:42:29;99855.38;;;9.41;100.00
15193;BME280;7697;51.630;7.484;2023-03-25T21:47:31;99873.44;;;9.51;100.00
15193;BME280;7697;51.630;7.484;2023-03-25T21:52:34;99861.47;;;9.41;100.00
15193;BME280;7697;51.630;7.484;2023-03-25T21:57:37;99865.31;;;9.46;100.00
15193;BME280;7697;51.630;7.484;2023-03-25T22:02:40;99865.53;;;9.44;100.00
15193;BME280;7697;51.630;7.484;2023-03-25T22:07:43;99887.88;;;9.48;100.00
15193;BME280;7697;51.630;7.484;2023-03-25T22:12:47;99885.25;;;9.41;100.00
15193;BME280;7697;51.630;7.484;2023-03-25T22:17:49;99887.69;;;9.43;100.00
15193;BME280;7697;51.630;7.484;2023-03-25T22:22:51;99910.06;;;9.47;100.00
15193;BME280;7697;51.630;7.484;2023-03-25T22:27:54;99898.09;;;9.38;100.00
15193;BME280;7697;51.630;7.484;2023-03-25T22:32:56;99912.50;;;9.42;100.00
15193;BME280;7697;51.630;7.484;2023-03-25T22:37:58;99904.75;;;9.47;100.00
15193;BME280;7697;51.630;7.484;2023-03-25T22:43:01;99901.53;;;9.38;100.00
15193;BME280;7697;51.630;7.484;2023-03-25T22:48:03;99926.72;;;9.48;100.00
15193;BME280;7697;51.630;7.484;2023-03-25T22:53:04;99917.78;;;9.42;100.00
15193;BME280;7697;51.630;7.484;2023-03-25T22:58:07;99937.91;;;9.43;100.00
15193;BME280;7697;51.630;7.484;2023-03-25T23:03:09;99927.56;;;9.35;100.00
15193;BME280;7697;51.630;7.484;2023-03-25T23:08:11;99938.94;;;9.35;100.00
15193;BME280;7697;51.630;7.484;2023-03-25T23:13:14;99948.50;;;9.36;100.00
15193;BME280;7697;51.630;7.484;2023-03-25T23:18:16;99937.34;;;9.28;100.00
15193;BME280;7697;51.630;7.484;2023-03-25T23:23:18;99931.44;;;9.26;100.00
15193;BME280;7697;51.630;7.484;2023-03-25T23:28:23;99949.31;;;9.37;100.00
15193;BME280;7697;51.630;7.484;2023-03-25T23:33:26;99945.44;;;9.33;100.00
15193;BME280;7697;51.630;7.484;2023-03-25T23:38:28;99945.88;;;9.30;100.00
15193;BME280;7697;51.630;7.484;2023-03-25T23:43:32;99927.16;;;9.25;100.00
15193;BME280;7697;51.630;7.484;2023-03-25T23:48:34;99946.06;;;9.35;100.00
15193;BME280;7697;51.630;7.484;2023-03-25T23:53:40;99952.34;;;9.34;100.00
15193;BME280;7697;51.630;7.484;2023-03-25T23:58:45;99955.59;;;9.36;100.00
